Time;durP1;ratioP1;P1;durP2;ratioP2;P2;SDS_P1;SDS_P2;PMS_P1;PMS_P2;Temp;Humidity;BMP_temperature;BMP_pressure;BME280_temperature;BME280_humidity;BME280_pressure;Samples;Min_cycle;Max_cycle;Signal;HPM_P1;HPM_P2
2021/10/22 00:01:16;;;;;;;2.93;2.20;;;9.00;99.90;;;;;;5012621;28;20171;-69
2021/10/22 00:03:42;;;;;;;3.00;2.40;;;9.00;99.90;;;;;;5012885;28;20285;-69
2021/10/22 00:06:07;;;;;;;6.93;2.07;;;8.90;99.90;;;;;;5012784;28;20190;-69
2021/10/22 00:08:33;;;;;;;3.23;2.47;;;8.70;99.90;;;;;;5012745;28;20217;-69
2021/10/22 00:10:58;;;;;;;5.57;2.27;;;8.70;99.90;;;;;;5009987;28;20688;-69
2021/10/22 00:13:24;;;;;;;2.03;1.83;;;8.70;99.90;;;;;;5011702;28;20293;-69
2021/10/22 00:15:50;;;;;;;2.60;2.17;;;8.60;99.90;;;;;;5012661;28;20202;-68
2021/10/22 00:18:19;;;;;;;2.03;1.83;;;8.60;99.90;;;;;;5012359;28;20183;-69
2021/10/22 00:20:45;;;;;;;2.73;2.53;;;8.50;99.90;;;;;;5012429;28;20195;-69
2021/10/22 00:23:11;;;;;;;2.40;2.20;;;8.40;99.90;;;;;;5012711;28;20826;-66
2021/10/22 00:25:36;;;;;;;2.37;2.17;;;8.30;99.90;;;;;;5012220;28;20449;-69
2021/10/22 00:28:02;;;;;;;2.33;2.13;;;8.30;99.90;;;;;;5012282;28;20178;-69
2021/10/22 00:30:28;;;;;;;2.60;1.90;;;8.20;99.90;;;;;;5012379;28;20632;-69
2021/10/22 00:32:53;;;;;;;2.80;2.33;;;8.20;99.90;;;;;;5012331;28;20187;-69
2021/10/22 00:35:19;;;;;;;3.40;2.37;;;8.20;99.90;;;;;;5012347;28;20843;-69
2021/10/22 00:37:44;;;;;;;3.17;2.77;;;8.20;99.90;;;;;;5011859;28;20243;-69
2021/10/22 00:40:11;;;;;;;2.70;2.13;;;8.10;99.90;;;;;;5012030;28;20258;-69
2021/10/22 00:42:37;;;;;;;2.30;2.10;;;8.10;99.90;;;;;;5012186;28;20169;-69
2021/10/22 00:45:03;;;;;;;3.87;2.60;;;8.20;99.90;;;;;;5012334;28;20454;-68
2021/10/22 00:47:29;;;;;;;4.00;2.80;;;8.20;99.90;;;;;;5011658;28;20182;-69
2021/10/22 00:49:55;;;;;;;2.60;2.40;;;8.20;99.90;;;;;;5012233;28;20536;-69
2021/10/22 00:52:24;;;;;;;4.03;1.87;;;8.30;99.90;;;;;;5012122;28;20229;-69
2021/10/22 00:54:50;;;;;;;2.90;2.70;;;8.30;99.90;;;;;;5011905;28;20467;-69
2021/10/22 00:57:16;;;;;;;2.93;2.63;;;8.30;99.90;;;;;;5011600;28;20500;-68
2021/10/22 00:59:42;;;;;;;4.23;2.90;;;8.40;99.90;;;;;;5010160;28;20473;-69
2021/10/22 01:02:10;;;;;;;4.57;2.20;;;8.50;99.90;;;;;;5011677;28;20187;-69
2021/10/22 01:04:37;;;;;;;2.43;2.20;;;8.50;99.90;;;;;;5011669;28;20848;-69
2021/10/22 01:07:05;;;;;;;3.40;2.13;;;8.60;99.90;;;;;;5012111;28;20444;-68
2021/10/22 01:09:30;;;;;;;3.13;1.97;;;8.50;99.90;;;;;;5011857;28;20452;-68
2021/10/22 01:11:56;;;;;;;1.97;1.63;;;8.40;99.90;;;;;;5012026;28;20430;-69
2021/10/22 01:14:22;;;;;;;2.30;2.20;;;8.30;99.90;;;;;;5011268;28;20557;-68
2021/10/22 01:16:47;;;;;;;2.57;2.30;;;8.30;99.90;;;;;;5011584;28;20240;-69
2021/10/22 01:19:15;;;;;;;2.17;1.90;;;8.30;99.90;;;;;;5011523;28;20193;-68
2021/10/22 01:21:43;;;;;;;2.20;2.00;;;8.40;99.90;;;;;;5011634;28;20183;-68
2021/10/22 01:24:09;;;;;;;2.83;2.00;;;8.40;99.90;;;;;;5011726;28;20541;-69
2021/10/22 01:26:35;;;;;;;2.87;2.27;;;8.50;99.90;;;;;;5004221;28;20525;-69
2021/10/22 01:29:01;;;;;;;4.07;2.50;;;8.40;99.90;;;;;;5015536;28;20632;-69
2021/10/22 01:31:27;;;;;;;4.87;2.50;;;8.40;99.90;;;;;;5015488;28;20266;-69
2021/10/22 01:33:54;;;;;;;2.37;1.70;;;8.50;99.90;;;;;;5015620;28;20195;-68
2021/10/22 01:36:20;;;;;;;3.23;2.47;;;8.50;99.90;;;;;;5015234;28;20543;-68
2021/10/22 01:38:46;;;;;;;3.30;2.90;;;8.60;99.90;;;;;;5015192;28;20434;-69
2021/10/22 01:41:13;;;;;;;3.07;2.37;;;8.60;99.90;;;;;;5015381;28;20175;-69
2021/10/22 01:43:41;;;;;;;3.97;2.90;;;8.60;99.90;;;;;;5015274;28;20472;-69
2021/10/22 01:46:07;;;;;;;3.00;2.40;;;8.60;99.90;;;;;;5015090;28;20445;-68
2021/10/22 01:48:33;;;;;;;2.80;2.60;;;8.60;99.90;;;;;;5015157;28;20440;-68
2021/10/22 01:50:58;;;;;;;3.60;3.10;;;8.60;99.90;;;;;;5015477;28;20530;-69
2021/10/22 01:53:24;;;;;;;4.00;2.47;;;8.70;99.90;;;;;;5014879;28;20728;-66
2021/10/22 01:55:50;;;;;;;4.33;2.50;;;8.60;99.90;;;;;;5015077;28;20215;-66
2021/10/22 01:58:16;;;;;;;2.70;2.50;;;8.60;99.90;;;;;;5015031;28;20188;-66
2021/10/22 02:00:41;;;;;;;2.67;2.23;;;8.60;99.90;;;;;;5015267;28;20437;-66
2021/10/22 02:03:07;;;;;;;5.57;2.93;;;8.60;99.90;;;;;;5014947;28;20237;-66
2021/10/22 02:05:34;;;;;;;4.30;2.70;;;8.60;99.90;;;;;;5014879;28;20198;-66
2021/10/22 02:07:59;;;;;;;2.63;2.43;;;8.70;99.90;;;;;;5014493;28;20444;-66
2021/10/22 02:10:25;;;;;;;3.63;3.20;;;8.60;99.90;;;;;;5015121;28;20437;-66
2021/10/22 02:12:50;;;;;;;7.50;3.17;;;8.60;99.90;;;;;;5014714;28;20206;-66
2021/10/22 02:15:16;;;;;;;2.50;2.30;;;8.50;99.90;;;;;;5015094;28;20222;-66
2021/10/22 02:17:41;;;;;;;3.80;2.70;;;8.50;99.90;;;;;;5014257;28;20175;-68
2021/10/22 02:20:08;;;;;;;2.70;2.50;;;8.50;99.90;;;;;;5014877;28;20657;-66
2021/10/22 02:22:33;;;;;;;4.33;2.73;;;8.40;99.90;;;;;;5014655;28;20171;-66
2021/10/22 02:24:59;;;;;;;2.80;2.60;;;8.40;99.90;;;;;;5003185;28;20446;-66
2021/10/22 02:27:24;;;;;;;3.30;2.50;;;8.30;99.90;;;;;;5014472;28;20664;-67
2021/10/22 02:29:50;;;;;;;2.60;2.40;;;8.20;99.90;;;;;;5014530;28;20563;-66
2021/10/22 02:32:15;;;;;;;4.17;3.77;;;8.10;99.90;;;;;;5014201;28;20558;-67
2021/10/22 02:34:41;;;;;;;5.00;3.00;;;8.10;99.90;;;;;;5014253;28;20688;-66
2021/10/22 02:37:07;;;;;;;3.70;3.30;;;8.00;99.90;;;;;;5013451;28;20637;-69
2021/10/22 02:39:36;;;;;;;3.00;2.80;;;7.90;99.90;;;;;;5014148;28;20178;-68
2021/10/22 02:42:02;;;;;;;3.10;2.80;;;7.80;99.90;;;;;;5014270;28;20217;-68
2021/10/22 02:44:28;;;;;;;2.60;2.40;;;7.80;99.90;;;;;;5014356;28;20458;-68
2021/10/22 02:46:53;;;;;;;2.47;2.27;;;7.70;99.90;;;;;;5014064;28;20287;-68
2021/10/22 02:49:19;;;;;;;3.20;2.60;;;7.70;99.90;;;;;;5014073;28;20175;-69
2021/10/22 02:51:44;;;;;;;3.20;3.00;;;7.60;99.90;;;;;;5014481;28;20172;-69
2021/10/22 02:54:10;;;;;;;5.17;3.20;;;7.60;99.90;;;;;;5014178;28;20198;-68
2021/10/22 02:56:35;;;;;;;5.97;3.07;;;7.50;99.90;;;;;;5013867;28;20669;-69
2021/10/22 02:59:01;;;;;;;2.50;2.27;;;7.40;99.90;;;;;;4996439;28;20171;-66
2021/10/22 03:01:27;;;;;;;5.80;2.63;;;7.40;99.90;;;;;;5014154;28;20636;-66
2021/10/22 03:03:52;;;;;;;3.73;2.43;;;7.30;99.90;;;;;;5013831;28;20203;-66
2021/10/22 03:06:18;;;;;;;7.00;2.53;;;7.30;99.90;;;;;;5014179;28;20216;-66
2021/10/22 03:08:43;;;;;;;4.40;2.00;;;7.30;99.90;;;;;;5013521;28;20179;-66
2021/10/22 03:11:09;;;;;;;3.10;2.47;;;7.20;99.90;;;;;;5014029;28;20210;-67
2021/10/22 03:13:35;;;;;;;2.67;2.47;;;7.10;99.90;;;;;;5013774;28;20225;-66
2021/10/22 03:16:00;;;;;;;2.43;2.00;;;7.10;99.90;;;;;;5013783;28;20242;-66
2021/10/22 03:18:26;;;;;;;5.03;2.73;;;7.00;99.90;;;;;;5013275;28;20267;-67
2021/10/22 03:20:51;;;;;;;2.50;2.07;;;6.90;99.90;;;;;;5013487;28;20183;-66
2021/10/22 03:23:17;;;;;;;3.47;2.40;;;6.90;99.90;;;;;;5013597;28;20195;-66
2021/10/22 03:25:42;;;;;;;2.47;2.10;;;6.90;99.90;;;;;;5009773;28;20597;-66
2021/10/22 03:28:08;;;;;;;4.17;2.17;;;6.80;99.90;;;;;;5008236;28;20633;-66
2021/10/22 03:30:36;;;;;;;2.97;2.10;;;6.80;99.90;;;;;;5013216;28;20182;-66
2021/10/22 03:33:03;;;;;;;4.00;2.40;;;6.80;99.90;;;;;;5012722;28;20189;-66
2021/10/22 03:35:29;;;;;;;4.93;2.23;;;6.70;99.90;;;;;;5013494;28;20453;-66
2021/10/22 03:37:55;;;;;;;10.07;2.30;;;6.70;99.90;;;;;;5013169;28;20443;-67
2021/10/22 03:40:21;;;;;;;5.20;1.60;;;6.70;99.90;;;;;;5013786;28;20418;-66
2021/10/22 03:42:48;;;;;;;8.40;2.30;;;6.70;99.90;;;;;;5012961;28;20441;-66
2021/10/22 03:45:14;;;;;;;6.17;2.20;;;6.60;99.90;;;;;;5013256;28;20822;-66
2021/10/22 03:47:42;;;;;;;5.07;2.53;;;6.50;99.90;;;;;;5012560;28;20438;-66
2021/10/22 03:50:08;;;;;;;3.63;2.37;;;6.40;99.90;;;;;;5013229;28;20797;-67
2021/10/22 03:52:33;;;;;;;2.67;1.93;;;6.40;99.90;;;;;;5012869;28;20943;-66
2021/10/22 03:54:59;;;;;;;3.33;2.33;;;6.40;99.90;;;;;;5013194;28;20458;-66
2021/10/22 03:57:25;;;;;;;5.33;2.70;;;6.30;99.90;;;;;;5012914;28;20660;-66
2021/10/22 03:59:50;;;;;;;4.63;2.30;;;6.30;99.90;;;;;;5012898;28;20175;-66
2021/10/22 04:02:16;;;;;;;4.40;2.77;;;6.30;99.90;;;;;;5012797;28;20174;-66
2021/10/22 04:04:41;;;;;;;4.10;2.33;;;6.20;99.90;;;;;;5013394;28;20198;-66
2021/10/22 04:07:07;;;;;;;3.57;2.50;;;6.20;99.90;;;;;;5012930;28;20244;-66
2021/10/22 04:09:33;;;;;;;4.17;1.97;;;6.20;99.90;;;;;;5012162;28;20178;-66
2021/10/22 04:11:59;;;;;;;3.17;2.33;;;6.20;99.90;;;;;;5012792;28;20178;-66
2021/10/22 04:14:24;;;;;;;5.07;2.30;;;6.20;99.90;;;;;;5012764;28;20548;-66
2021/10/22 04:16:50;;;;;;;5.60;2.60;;;6.10;99.90;;;;;;5012799;28;20557;-67
2021/10/22 04:19:16;;;;;;;3.90;2.57;;;6.10;99.90;;;;;;5012262;28;20249;-67
2021/10/22 04:21:42;;;;;;;2.70;2.13;;;6.10;99.90;;;;;;5012342;28;20300;-67
2021/10/22 04:24:08;;;;;;;4.70;1.97;;;6.10;99.90;;;;;;5012532;28;20497;-68
2021/10/22 04:26:33;;;;;;;4.23;1.97;;;6.00;99.90;;;;;;5012551;28;20448;-68
2021/10/22 04:28:59;;;;;;;4.30;2.60;;;6.00;99.90;;;;;;5012111;28;20708;-68
2021/10/22 04:31:24;;;;;;;7.87;2.80;;;5.90;99.90;;;;;;5012286;28;20178;-68
2021/10/22 04:33:50;;;;;;;6.73;2.43;;;5.90;99.90;;;;;;5012151;28;20199;-68
2021/10/22 04:36:17;;;;;;;3.67;2.67;;;5.80;99.90;;;;;;5012252;28;20313;-68
2021/10/22 04:41:27;;;;;;;3.30;1.77;;;5.80;99.90;;;;;;5012200;28;20453;-68
2021/10/22 04:43:53;;;;;;;4.90;2.40;;;5.80;99.90;;;;;;5012089;28;20544;-68
2021/10/22 04:46:19;;;;;;;7.73;2.50;;;5.90;99.90;;;;;;5012182;28;20930;-68
2021/10/22 04:48:46;;;;;;;3.33;1.67;;;5.90;99.90;;;;;;5011899;28;20441;-68
2021/10/22 04:51:12;;;;;;;3.60;2.60;;;5.80;99.90;;;;;;5011971;28;20434;-68
2021/10/22 04:53:38;;;;;;;6.43;4.10;;;5.70;99.90;;;;;;5011752;28;20464;-68
2021/10/22 04:56:03;;;;;;;4.63;2.43;;;5.70;99.90;;;;;;5011852;28;20966;-68
2021/10/22 04:58:29;;;;;;;7.17;2.90;;;5.70;99.90;;;;;;5011909;28;20211;-68
2021/10/22 05:00:54;;;;;;;4.73;2.43;;;5.60;99.90;;;;;;5011422;28;20799;-68
2021/10/22 05:03:20;;;;;;;4.73;2.50;;;5.60;99.90;;;;;;5011395;28;20202;-68
2021/10/22 05:05:46;;;;;;;3.67;2.40;;;5.60;99.90;;;;;;5011517;28;20727;-68
2021/10/22 05:08:11;;;;;;;5.93;2.20;;;5.50;99.90;;;;;;5011529;28;20683;-68
2021/10/22 05:10:37;;;;;;;7.23;2.97;;;5.60;99.90;;;;;;5012126;28;20183;-68
2021/10/22 05:13:02;;;;;;;4.57;2.30;;;5.60;99.90;;;;;;5011243;28;20183;-68
2021/10/22 05:15:28;;;;;;;7.60;2.70;;;5.60;99.90;;;;;;5008015;28;20227;-67
2021/10/22 05:17:54;;;;;;;10.17;2.80;;;5.50;99.90;;;;;;5010882;28;20258;-68
2021/10/22 05:20:20;;;;;;;7.47;2.90;;;5.50;99.90;;;;;;5020892;28;20231;-68
2021/10/22 05:22:46;;;;;;;6.97;2.50;;;5.50;99.90;;;;;;5012065;28;20438;-68
2021/10/22 05:25:12;;;;;;;8.17;2.23;;;5.50;99.90;;;;;;5011798;28;20565;-68
2021/10/22 05:27:38;;;;;;;6.93;3.00;;;5.50;99.90;;;;;;5010882;28;20196;-68
2021/10/22 05:30:06;;;;;;;5.73;2.27;;;5.40;99.90;;;;;;5011669;28;20524;-68
2021/10/22 05:32:31;;;;;;;10.87;3.40;;;5.40;99.90;;;;;;5011664;28;20448;-68
2021/10/22 05:34:57;;;;;;;6.97;3.03;;;5.40;99.90;;;;;;5011465;28;20457;-68
2021/10/22 05:37:22;;;;;;;4.70;2.00;;;5.30;99.90;;;;;;5011490;28;20179;-68
2021/10/22 05:39:49;;;;;;;13.70;2.90;;;5.30;99.90;;;;;;5011315;28;20228;-68
2021/10/22 05:42:15;;;;;;;12.33;3.50;;;5.30;99.90;;;;;;5011595;28;20182;-68
2021/10/22 05:44:41;;;;;;;4.83;2.90;;;5.30;99.90;;;;;;5011376;28;20450;-68
2021/10/22 05:47:06;;;;;;;7.70;3.33;;;5.30;99.90;;;;;;5010835;28;20171;-68
2021/10/22 05:49:32;;;;;;;11.40;4.00;;;5.30;99.90;;;;;;5010894;28;20187;-68
2021/10/22 05:51:57;;;;;;;13.60;3.37;;;5.40;99.90;;;;;;5011484;28;20620;-69
2021/10/22 05:54:23;;;;;;;9.80;3.13;;;5.40;99.90;;;;;;5008038;28;20771;-68
2021/10/22 05:56:49;;;;;;;3.37;2.07;;;5.40;99.90;;;;;;5009886;28;20568;-66
2021/10/22 05:59:15;;;;;;;6.97;2.67;;;5.40;99.90;;;;;;5004087;28;20179;-66
2021/10/22 06:01:41;;;;;;;12.93;2.90;;;5.40;99.90;;;;;;5015281;28;20491;-68
2021/10/22 06:04:06;;;;;;;10.80;3.73;;;5.40;99.90;;;;;;5026785;28;20986;-70
2021/10/22 06:06:32;;;;;;;5.47;3.37;;;5.40;99.90;;;;;;5010814;28;20171;-70
2021/10/22 06:08:59;;;;;;;3.80;2.43;;;5.50;99.90;;;;;;5011509;28;20313;-66
2021/10/22 06:11:24;;;;;;;6.60;2.90;;;5.50;99.90;;;;;;5012665;28;20178;-66
2021/10/22 06:13:50;;;;;;;7.23;3.67;;;5.50;99.90;;;;;;5014892;28;20461;-66
2021/10/22 06:16:16;;;;;;;8.30;2.70;;;5.60;99.90;;;;;;5014885;28;20199;-65
2021/10/22 06:18:47;;;;;;;7.00;3.60;;;5.50;99.90;;;;;;5014838;28;20673;-66
2021/10/22 06:21:36;;;;;;;5.20;2.87;;;5.50;99.90;;;;;;5008417;28;20421;-66
2021/10/22 06:24:03;;;;;;;8.60;3.33;;;5.50;99.90;;;;;;5014764;28;20944;-66
2021/10/22 06:26:32;;;;;;;5.00;2.97;;;5.60;99.90;;;;;;5015172;28;20493;-67
2021/10/22 06:28:58;;;;;;;10.10;3.57;;;5.60;99.90;;;;;;5014947;28;20425;-66
2021/10/22 06:31:23;;;;;;;4.80;3.50;;;5.70;99.90;;;;;;5015145;28;20500;-66
2021/10/22 06:33:49;;;;;;;9.93;3.57;;;5.70;99.90;;;;;;5014966;28;21026;-66
2021/10/22 06:36:15;;;;;;;18.10;4.77;;;5.80;99.90;;;;;;5014950;28;20207;-65
2021/10/22 06:38:41;;;;;;;17.67;4.93;;;5.90;99.90;;;;;;5014741;28;20171;-66
2021/10/22 06:41:09;;;;;;;16.13;4.83;;;6.10;99.90;;;;;;5014785;28;20432;-66
2021/10/22 06:43:36;;;;;;;10.40;3.97;;;6.30;99.90;;;;;;5014778;28;20186;-66
2021/10/22 06:46:03;;;;;;;6.57;3.40;;;6.60;99.90;;;;;;5014901;28;20830;-66
2021/10/22 06:48:28;;;;;;;13.13;3.70;;;6.80;99.90;;;;;;5014479;28;20473;-66
2021/10/22 06:50:54;;;;;;;7.80;3.93;;;7.00;99.90;;;;;;5014713;28;20927;-66
2021/10/22 06:53:20;;;;;;;7.47;4.73;;;7.20;99.90;;;;;;5014700;28;20249;-66
2021/10/22 06:55:46;;;;;;;11.60;5.27;;;7.50;99.90;;;;;;5014481;28;20534;-66
2021/10/22 06:58:12;;;;;;;7.50;4.33;;;7.60;99.90;;;;;;5014269;28;20418;-66
2021/10/22 07:00:37;;;;;;;14.77;3.70;;;7.90;99.90;;;;;;5014571;28;20297;-66
2021/10/22 07:03:04;;;;;;;10.63;3.97;;;8.20;99.90;;;;;;5014013;28;20183;-67
2021/10/22 07:07:56;;;;;;;9.33;3.90;;;8.60;99.90;;;;;;5000976;28;20434;-66
2021/10/22 07:10:21;;;;;;;16.50;5.10;;;8.80;99.90;;;;;;5014316;28;20179;-67
2021/10/22 07:12:47;;;;;;;7.90;4.30;;;8.90;99.90;;;;;;5014177;28;20782;-66
2021/10/22 07:15:14;;;;;;;14.17;4.67;;;9.10;99.90;;;;;;5011689;28;20256;-67
2021/10/22 07:17:39;;;;;;;10.27;5.00;;;9.30;99.90;;;;;;5013927;28;20167;-67
2021/10/22 07:20:06;;;;;;;7.17;3.63;;;9.60;99.90;;;;;;5014225;28;20421;-66
2021/10/22 07:22:32;;;;;;;8.60;3.93;;;9.90;99.90;;;;;;5013416;28;20179;-68
2021/10/22 07:24:58;;;;;;;13.77;3.83;;;10.20;99.90;;;;;;5011324;28;20854;-66
2021/10/22 07:27:25;;;;;;;6.70;3.30;;;10.40;99.90;;;;;;5013824;28;20436;-66
2021/10/22 07:29:50;;;;;;;14.03;3.97;;;10.70;99.90;;;;;;5013681;28;20171;-67
2021/10/22 07:32:16;;;;;;;6.30;3.90;;;10.80;99.90;;;;;;5013954;28;20837;-66
2021/10/22 07:34:41;;;;;;;6.50;3.07;;;11.10;99.90;;;;;;5011316;28;20199;-66
2021/10/22 07:37:07;;;;;;;10.23;3.93;;;11.30;99.90;;;;;;5013753;28;20253;-66
2021/10/22 07:39:33;;;;;;;10.10;5.33;;;11.60;99.90;;;;;;5013483;28;20163;-67
2021/10/22 07:41:59;;;;;;;23.53;10.53;;;12.00;99.90;;;;;;5013873;28;20418;-67
2021/10/22 07:44:25;;;;;;;21.70;5.33;;;12.30;99.90;;;;;;5011054;28;20203;-67
2021/10/22 07:46:51;;;;;;;10.37;4.10;;;12.60;99.90;;;;;;5013719;28;20171;-66
2021/10/22 07:49:17;;;;;;;10.50;3.90;;;13.00;99.90;;;;;;5013373;28;20167;-67
2021/10/22 07:51:42;;;;;;;9.00;3.03;;;13.10;99.90;;;;;;5013476;28;20414;-67
2021/10/22 07:54:09;;;;;;;14.80;4.07;;;12.70;99.90;;;;;;5010713;28;20236;-67
2021/10/22 07:56:35;;;;;;;8.07;3.10;;;12.20;99.90;;;;;;5013422;28;20198;-66
2021/10/22 07:59:03;;;;;;;12.03;3.40;;;12.10;99.90;;;;;;5013243;28;20541;-67
2021/10/22 08:01:29;;;;;;;9.60;2.73;;;12.40;99.90;;;;;;5013493;28;20573;-67
2021/10/22 08:03:54;;;;;;;12.57;3.47;;;12.80;99.90;;;;;;5010483;28;20473;-66
2021/10/22 08:06:20;;;;;;;8.40;3.37;;;13.10;99.90;;;;;;5013357;28;20186;-67
2021/10/22 08:08:46;;;;;;;7.10;3.53;;;12.90;99.90;;;;;;5012876;28;20202;-67
2021/10/22 08:11:16;;;;;;;5.97;2.60;;;12.60;99.90;;;;;;5013480;28;20683;-67
2021/10/22 08:13:42;;;;;;;13.43;3.20;;;13.20;99.90;;;;;;5011825;28;20452;-68
2021/10/22 08:16:08;;;;;;;11.20;3.43;;;13.90;99.90;;;;;;5011914;28;20466;-67
2021/10/22 08:18:36;;;;;;;8.07;3.40;;;14.10;99.90;;;;;;5012892;28;20418;-67
2021/10/22 08:21:15;;;;;;;8.23;2.97;;;14.40;99.90;;;;;;5013064;28;20417;-66
2021/10/22 08:23:41;;;;;;;17.10;3.90;;;14.70;99.90;;;;;;5011770;28;20433;-69
2021/10/22 08:26:06;;;;;;;6.60;2.87;;;15.50;99.90;;;;;;5011519;28;20468;-66
2021/10/22 08:28:32;;;;;;;12.07;3.60;;;16.60;99.90;;;;;;5012631;28;20182;-66
2021/10/22 08:30:57;;;;;;;7.53;2.77;;;17.20;99.90;;;;;;5012986;28;20189;-67
2021/10/22 08:33:24;;;;;;;6.27;3.00;;;17.80;98.20;;;;;;5011565;28;20233;-67
2021/10/22 08:35:50;;;;;;;3.97;2.30;;;17.70;97.20;;;;;;5008815;28;20256;-67
2021/10/22 08:38:16;;;;;;;8.37;3.20;;;17.50;97.60;;;;;;5012457;28;20450;-68
2021/10/22 08:40:42;;;;;;;6.90;2.50;;;18.30;96.20;;;;;;5012830;28;20453;-67
2021/10/22 08:43:07;;;;;;;9.03;2.70;;;18.60;93.50;;;;;;5012726;28;20183;-67
2021/10/22 08:45:33;;;;;;;8.97;2.93;;;17.90;94.30;;;;;;5010054;28;20171;-67
2021/10/22 08:48:03;;;;;;;7.30;2.93;;;18.80;94.50;;;;;;5012409;28;20309;-67
2021/10/22 08:50:28;;;;;;;6.30;3.23;;;18.60;93.20;;;;;;5012581;28;20413;-66
2021/10/22 08:52:54;;;;;;;9.53;2.90;;;19.30;91.10;;;;;;5011802;28;20413;-67
2021/10/22 08:55:20;;;;;;;5.83;3.47;;;19.90;87.70;;;;;;5009397;28;20202;-67
2021/10/22 08:57:47;;;;;;;8.77;3.27;;;20.20;88.70;;;;;;5012054;28;20183;-68
2021/10/22 09:00:15;;;;;;;8.20;3.33;;;20.20;87.70;;;;;;5012503;28;20418;-67
2021/10/22 09:02:44;;;;;;;8.57;2.83;;;19.40;87.60;;;;;;5011765;28;20442;-67
2021/10/22 09:05:13;;;;;;;7.07;3.10;;;18.90;89.50;;;;;;5001942;28;20461;-68
2021/10/22 09:07:47;;;;;;;7.00;2.40;;;19.60;89.40;;;;;;5008537;28;20425;-70
2021/10/22 09:10:22;;;;;;;3.90;2.60;;;20.50;84.00;;;;;;5009521;28;20429;-69
2021/10/22 09:12:48;;;;;;;5.30;2.90;;;20.00;84.30;;;;;;5009083;28;20413;-72
2021/10/22 09:15:20;;;;;;;5.80;2.73;;;19.70;85.30;;;;;;5006431;28;20458;-67
2021/10/22 09:17:47;;;;;;;7.07;3.20;;;21.80;81.00;;;;;;5008838;28;20429;-69
2021/10/22 09:20:14;;;;;;;7.13;2.50;;;22.00;76.60;;;;;;5010194;28;20493;-68
2021/10/22 09:22:41;;;;;;;5.63;2.23;;;21.70;75.50;;;;;;5011194;28;20424;-67
2021/10/22 09:25:11;;;;;;;6.03;2.93;;;21.50;75.70;;;;;;5008274;28;20528;-67
2021/10/22 09:27:39;;;;;;;6.00;2.30;;;22.30;71.60;;;;;;5011969;28;20429;-68
2021/10/22 09:30:09;;;;;;;5.30;2.70;;;21.50;71.40;;;;;;5012007;28;20468;-67
2021/10/22 09:32:44;;;;;;;6.53;1.97;;;20.00;71.70;;;;;;5012079;28;20453;-67
2021/10/22 09:35:09;;;;;;;7.37;2.90;;;20.20;72.20;;;;;;5008815;28;20448;-67
2021/10/22 09:37:39;;;;;;;4.40;2.53;;;20.20;73.10;;;;;;5011040;28;20422;-67
2021/10/22 09:40:06;;;;;;;4.20;2.07;;;20.60;71.70;;;;;;5011512;28;20175;-68
2021/10/22 09:42:33;;;;;;;4.10;2.20;;;21.10;71.30;;;;;;5012000;28;20417;-67
2021/10/22 09:44:59;;;;;;;5.03;1.90;;;21.50;69.40;;;;;;5008509;28;20453;-67
2021/10/22 09:47:25;;;;;;;7.23;4.00;;;23.20;65.90;;;;;;5014559;28;20417;-67
2021/10/22 09:49:53;;;;;;;4.60;2.30;;;25.20;58.80;;;;;;5015845;28;20410;-67
2021/10/22 09:52:24;;;;;;;5.37;2.73;;;22.80;59.20;;;;;;5015838;28;20692;-68
2021/10/22 09:55:12;;;;;;;9.83;3.20;;;23.70;58.20;;;;;;5013035;28;20441;-67
2021/10/22 09:57:39;;;;;;;3.87;2.30;;;24.20;54.20;;;;;;4995968;28;20518;-67
2021/10/22 10:00:08;;;;;;;6.10;1.80;;;22.10;55.50;;;;;;4996156;28;20446;-67
2021/10/22 10:02:38;;;;;;;5.70;2.43;;;22.50;55.50;;;;;;4995972;28;20827;-67
2021/10/22 10:05:06;;;;;;;9.23;2.10;;;22.50;55.00;;;;;;5005760;28;20967;-67
2021/10/22 10:07:41;;;;;;;2.17;1.67;;;22.80;54.30;;;;;;5015265;28;20930;-67
2021/10/22 10:10:09;;;;;;;4.70;1.80;;;23.00;52.50;;;;;;5015580;28;20413;-67
2021/10/22 10:12:36;;;;;;;4.77;1.90;;;23.50;51.40;;;;;;5016059;28;20424;-66
2021/10/22 10:15:04;;;;;;;4.77;1.77;;;22.60;50.80;;;;;;5012843;28;20484;-67
2021/10/22 10:17:32;;;;;;;4.30;2.00;;;22.90;50.80;;;;;;5015153;28;20985;-65
2021/10/22 10:19:58;;;;;;;4.47;2.03;;;24.20;50.20;;;;;;5015299;28;20417;-66
2021/10/22 10:22:28;;;;;;;4.17;1.63;;;25.00;49.30;;;;;;5015200;28;20972;-67
2021/10/22 10:24:59;;;;;;;3.83;1.83;;;26.40;46.90;;;;;;5012727;28;20191;-68
2021/10/22 10:27:26;;;;;;;4.73;2.27;;;27.10;44.40;;;;;;5014641;28;20798;-67
2021/10/22 10:29:58;;;;;;;4.40;2.07;;;26.30;45.00;;;;;;5015083;28;20445;-67
2021/10/22 10:32:26;;;;;;;3.50;1.90;;;25.80;45.40;;;;;;5015039;28;20424;-66
2021/10/22 10:34:59;;;;;;;4.47;2.17;;;27.90;42.70;;;;;;5012367;28;20434;-67
2021/10/22 10:37:36;;;;;;;2.60;1.70;;;26.60;42.10;;;;;;5013450;28;20430;-67
2021/10/22 10:40:06;;;;;;;3.17;2.27;;;27.00;41.70;;;;;;5015043;28;20437;-67
2021/10/22 10:42:38;;;;;;;4.30;1.93;;;25.60;41.60;;;;;;5014755;28;20797;-67
2021/10/22 10:45:08;;;;;;;3.23;2.40;;;25.20;43.60;;;;;;5012138;28;20803;-67
2021/10/22 10:47:39;;;;;;;3.13;1.60;;;26.00;41.90;;;;;;5014574;28;20929;-67
2021/10/22 10:50:07;;;;;;;4.43;1.97;;;24.50;41.70;;;;;;5014758;28;20422;-67
2021/10/22 10:52:38;;;;;;;2.70;1.57;;;24.00;41.60;;;;;;5014817;28;20502;-67
2021/10/22 10:55:29;;;;;;;3.40;1.40;;;23.70;42.00;;;;;;5012030;28;20646;-68
2021/10/22 10:57:59;;;;;;;8.17;2.30;;;22.90;41.70;;;;;;5013186;28;20405;-67
2021/10/22 11:00:33;;;;;;;5.80;2.60;;;23.10;44.70;;;;;;5014491;28;20441;-68
2021/10/22 11:03:02;;;;;;;3.20;2.10;;;25.40;41.90;;;;;;5014386;28;20426;-68
2021/10/22 11:05:43;;;;;;;4.47;1.70;;;27.50;38.80;;;;;;5011607;28;20425;-67
2021/10/22 11:08:23;;;;;;;4.93;2.23;;;27.80;36.70;;;;;;5014106;28;20409;-67
2021/10/22 11:11:04;;;;;;;3.07;1.60;;;26.80;35.90;;;;;;5014459;28;20414;-67
2021/10/22 11:13:48;;;;;;;6.90;1.83;;;25.80;36.80;;;;;;5014419;28;21157;-67
2021/10/22 11:18:56;;;;;;;3.43;2.20;;;26.20;37.40;;;;;;5014182;28;20426;-68
2021/10/22 11:21:23;;;;;;;10.87;4.07;;;27.30;35.70;;;;;;5014251;28;20425;-67
2021/10/22 11:23:49;;;;;;;2.50;1.70;;;25.00;37.40;;;;;;5012310;28;20932;-68
2021/10/22 11:26:19;;;;;;;2.63;1.70;;;25.60;37.00;;;;;;5013478;28;20973;-68
2021/10/22 11:28:46;;;;;;;6.57;1.67;;;27.50;36.60;;;;;;5013763;28;20467;-67
2021/10/22 11:31:12;;;;;;;4.57;1.77;;;27.50;36.10;;;;;;5014036;28;20429;-67
2021/10/22 11:33:43;;;;;;;4.77;1.70;;;27.60;34.90;;;;;;5013091;28;20442;-69
2021/10/22 11:36:08;;;;;;;3.93;1.87;;;26.10;35.30;;;;;;5012718;28;20461;-67
2021/10/22 11:38:34;;;;;;;4.97;2.57;;;26.10;36.10;;;;;;5013596;28;20424;-68
2021/10/22 11:41:15;;;;;;;2.70;2.00;;;25.90;35.20;;;;;;5013902;28;20644;-67
2021/10/22 11:44:09;;;;;;;3.63;2.00;;;26.90;35.50;;;;;;5012521;28;20202;-68
2021/10/22 11:46:47;;;;;;;1.80;1.63;;;27.40;33.40;;;;;;5013383;28;20429;-67
2021/10/22 11:49:26;;;;;;;2.07;1.40;;;27.00;33.50;;;;;;5013379;28;20517;-67
2021/10/22 11:51:53;;;;;;;3.80;1.43;;;28.00;32.60;;;;;;5013277;28;20512;-68
2021/10/22 11:54:20;;;;;;;3.23;1.77;;;28.80;32.40;;;;;;5011074;28;20967;-67
2021/10/22 11:56:45;;;;;;;4.00;2.00;;;28.60;30.40;;;;;;5011737;28;20461;-68
2021/10/22 11:59:12;;;;;;;3.43;1.70;;;28.50;31.40;;;;;;5013155;28;20418;-67
2021/10/22 12:01:42;;;;;;;3.67;2.07;;;29.70;32.50;;;;;;5012842;28;20163;-67
2021/10/22 12:04:26;;;;;;;3.00;1.50;;;28.10;31.80;;;;;;5010605;28;20469;-67
2021/10/22 12:07:07;;;;;;;5.20;2.07;;;27.10;32.20;;;;;;5013312;28;20421;-67
2021/10/22 12:09:36;;;;;;;3.53;1.90;;;27.70;32.30;;;;;;4994015;28;20433;-67
2021/10/22 12:12:05;;;;;;;3.47;1.90;;;29.40;31.70;;;;;;5012234;28;20456;-67
2021/10/22 12:14:45;;;;;;;2.90;1.60;;;28.70;30.90;;;;;;5008117;28;20538;-68
2021/10/22 12:17:20;;;;;;;4.20;1.93;;;29.10;30.90;;;;;;5012632;28;20461;-67
2021/10/22 12:19:47;;;;;;;2.53;1.60;;;29.00;30.80;;;;;;5013013;28;20425;-67
2021/10/22 12:22:14;;;;;;;3.57;1.57;;;30.10;30.20;;;;;;5012982;28;20426;-67
2021/10/22 12:24:45;;;;;;;3.27;1.50;;;30.10;30.70;;;;;;4996130;28;20525;-67
2021/10/22 12:27:11;;;;;;;3.73;1.70;;;28.40;29.90;;;;;;4994517;28;20437;-67
2021/10/22 12:29:57;;;;;;;2.07;1.43;;;26.70;31.20;;;;;;4993155;28;20430;-67
2021/10/22 12:32:29;;;;;;;4.13;2.10;;;25.70;31.70;;;;;;4993128;28;20463;-67
2021/10/22 12:34:55;;;;;;;2.20;1.73;;;27.40;31.30;;;;;;5007838;28;20480;-67
2021/10/22 12:37:32;;;;;;;5.67;1.60;;;27.40;29.70;;;;;;5012373;28;20997;-67
2021/10/22 12:39:57;;;;;;;2.90;1.90;;;27.20;30.50;;;;;;5012835;28;20242;-67
2021/10/22 12:42:26;;;;;;;4.57;2.03;;;28.80;31.20;;;;;;5012700;28;20990;-67
2021/10/22 12:45:21;;;;;;;3.20;1.80;;;29.70;29.70;;;;;;5010296;28;20194;-67
2021/10/22 12:47:49;;;;;;;3.47;2.23;;;31.40;29.60;;;;;;5010409;28;20480;-67
2021/10/22 12:50:18;;;;;;;2.40;1.70;;;31.00;29.30;;;;;;5012539;28;20993;-68
2021/10/22 12:52:59;;;;;;;4.00;2.13;;;29.80;29.00;;;;;;5012636;28;20425;-67
2021/10/22 12:55:26;;;;;;;1.97;1.33;;;27.90;30.20;;;;;;5009979;28;20485;-67
2021/10/22 12:58:10;;;;;;;2.13;1.60;;;27.60;29.40;;;;;;5012300;28;20418;-67
2021/10/22 13:00:36;;;;;;;5.13;1.90;;;28.10;30.10;;;;;;5012538;28;20393;-67